Moab, UT

10:34 PM MDT on August 28, 2014 (GMT -0600)
Lance Ave | Change Station
CLOSE
Current Station
Personal Weather Station
Location: Moab, UT
Elevation: 4196 ft
Nearby Weather Stations

Elev 4196 ft 38.56 °N, 109.53 °W | Updated 15 minutes ago

Clear
Clear
68.0 °F
Feels Like 68.0 °F
N
0.0
Wind Variable Wind from SSW

Today
High -- | Low -- °F
--% Chance of Precip.
Yesterday
High -- | Low -- °F
Precip. -- in
6:43 AM 7:53 PM
Waxing Crescent, 12% visible
Pressure 29.96 in
Visibility 10.0 miles
Clouds Clear
Dew Point 51 °F
Humidity 55%
Rainfall 0.00 in
Snow Depth 0 in
UV 0 out of 12
Pollen 9.10 out of 12
Air Quality Not available.
Flu Activity Not available.
METAR KCNY 290353Z AUTO 00000KT 10SM CLR 22/08 A3011 RMK AO2 SLP145 T02170078

More Conditions Fewer Conditions

Pressure 29.96 in
Visibility 10.0 miles
Clouds Clear
Dew Point 51 °F
Humidity 55%
Rainfall 0.00 in
Snow Depth 0 in
UV 0 out of 12
Pollen 9.10 out of 12
Air Quality Not available.
Flu Activity Not available.
METAR KCNY 290353Z AUTO 00000KT 10SM CLR 22/08 A3011 RMK AO2 SLP145 T02170078

More Conditions Fewer Conditions

10-Day Weather Forecast

Almanac

Astronomy

Aug. 28, 2014 Rise Set
Actual Time 6:43 AM MDT 7:53 PM MDT
Civil Twilight 6:16 AM MDT 8:21 PM MDT
Nautical Twilight 5:43 AM MDT 8:53 PM MDT
Astronomical Twilight 5:09 AM MDT 9:27 PM MDT
Moon 9:36 AM MDT (8/28) 9:22 PM MDT (8/28)
Length of Visible Light 14h 04m
Length of Day
13h 10m
Tomorrow will be 2m 22s shorter.
Waxing Crescent, 12% of the Moon is Illuminated
Aug 29
Waxing Crescent
Sep 2
First Quarter
Sep 8
Full
Sep 15
Last Quarter
Sep 24
New

Today's Extremes

State Highs State Lows

Community

WunderPhotos

Upload Photos

1,748,185 photos uploaded!

Nearby

Snow Depth

Station Depth Elevation
Lasal Mountain 0 in 9850 ft
Donkey Reservoir 0 in 9800 ft
Black Flat-U.M. Creek 0 in 9400 ft
Seeley Creek 0 in 10000 ft
Farnsworth Lake 0 in 9600 ft

Earthquake Activity

City Distance Mag. Time & Date
No recent earthquake activity has been reported nearby.
Minimum magnitude displayed is 2.5.

Coastal Water Temperatures

Place Temperature
No Stations Reporting

Nearby Weather Stations